sensor_id;sensor_type;location;lat;lon;timestamp;P1;durP1;ratioP1;P2;durP2;ratioP2
52318;SDS011;38258;51.148;14.068;2023-08-08T00:01:33;4.07;;;2.30;;
52318;SDS011;38258;51.148;14.068;2023-08-08T00:04:00;4.35;;;1.95;;
52318;SDS011;38258;51.148;14.068;2023-08-08T00:06:27;5.55;;;2.53;;
52318;SDS011;38258;51.148;14.068;2023-08-08T00:08:54;4.32;;;2.22;;
52318;SDS011;38258;51.148;14.068;2023-08-08T00:11:22;4.28;;;2.30;;
52318;SDS011;38258;51.148;14.068;2023-08-08T00:13:49;6.68;;;2.50;;
52318;SDS011;38258;51.148;14.068;2023-08-08T00:16:15;5.95;;;2.33;;
52318;SDS011;38258;51.148;14.068;2023-08-08T00:18:42;4.40;;;2.22;;
52318;SDS011;38258;51.148;14.068;2023-08-08T00:21:09;5.18;;;2.35;;
52318;SDS011;38258;51.148;14.068;2023-08-08T00:23:36;4.35;;;2.20;;
52318;SDS011;38258;51.148;14.068;2023-08-08T00:26:02;4.25;;;2.40;;
52318;SDS011;38258;51.148;14.068;2023-08-08T00:28:30;7.00;;;2.33;;
52318;SDS011;38258;51.148;14.068;2023-08-08T00:30:57;5.82;;;2.55;;
52318;SDS011;38258;51.148;14.068;2023-08-08T00:33:24;7.10;;;2.28;;
52318;SDS011;38258;51.148;14.068;2023-08-08T00:35:51;5.03;;;2.30;;
52318;SDS011;38258;51.148;14.068;2023-08-08T00:38:17;6.65;;;2.72;;
52318;SDS011;38258;51.148;14.068;2023-08-08T00:40:44;5.47;;;2.70;;
52318;SDS011;38258;51.148;14.068;2023-08-08T00:43:11;6.93;;;2.70;;
52318;SDS011;38258;51.148;14.068;2023-08-08T00:45:39;5.80;;;2.75;;
52318;SDS011;38258;51.148;14.068;2023-08-08T00:48:08;4.25;;;2.30;;
52318;SDS011;38258;51.148;14.068;2023-08-08T00:50:35;5.25;;;2.50;;
52318;SDS011;38258;51.148;14.068;2023-08-08T00:53:03;6.90;;;2.55;;
52318;SDS011;38258;51.148;14.068;2023-08-08T00:55:31;7.03;;;2.78;;
52318;SDS011;38258;51.148;14.068;2023-08-08T00:57:58;5.68;;;2.55;;
52318;SDS011;38258;51.148;14.068;2023-08-08T01:00:25;5.72;;;2.67;;
52318;SDS011;38258;51.148;14.068;2023-08-08T01:02:53;4.70;;;2.35;;
52318;SDS011;38258;51.148;14.068;2023-08-08T01:05:20;6.43;;;2.40;;
52318;SDS011;38258;51.148;14.068;2023-08-08T01:07:47;6.07;;;2.13;;
52318;SDS011;38258;51.148;14.068;2023-08-08T01:10:20;5.88;;;2.78;;
52318;SDS011;38258;51.148;14.068;2023-08-08T01:12:51;6.57;;;2.33;;
52318;SDS011;38258;51.148;14.068;2023-08-08T01:15:21;5.57;;;2.50;;
52318;SDS011;38258;51.148;14.068;2023-08-08T01:17:49;5.68;;;2.88;;
52318;SDS011;38258;51.148;14.068;2023-08-08T01:20:18;7.03;;;2.58;;
52318;SDS011;38258;51.148;14.068;2023-08-08T01:22:54;4.65;;;2.80;;
52318;SDS011;38258;51.148;14.068;2023-08-08T01:25:27;4.28;;;2.50;;
52318;SDS011;38258;51.148;14.068;2023-08-08T01:27:55;5.53;;;2.42;;
52318;SDS011;38258;51.148;14.068;2023-08-08T01:30:22;6.35;;;2.95;;
52318;SDS011;38258;51.148;14.068;2023-08-08T01:32:49;6.32;;;3.05;;
52318;SDS011;38258;51.148;14.068;2023-08-08T01:35:15;6.05;;;2.75;;
52318;SDS011;38258;51.148;14.068;2023-08-08T01:37:44;6.70;;;2.67;;
52318;SDS011;38258;51.148;14.068;2023-08-08T01:40:15;4.50;;;2.10;;
52318;SDS011;38258;51.148;14.068;2023-08-08T01:42:45;6.53;;;2.60;;
52318;SDS011;38258;51.148;14.068;2023-08-08T01:45:13;5.68;;;2.40;;
52318;SDS011;38258;51.148;14.068;2023-08-08T01:47:41;4.82;;;2.15;;
52318;SDS011;38258;51.148;14.068;2023-08-08T01:50:08;5.80;;;3.45;;
52318;SDS011;38258;51.148;14.068;2023-08-08T01:52:35;5.57;;;2.50;;
52318;SDS011;38258;51.148;14.068;2023-08-08T01:55:02;5.03;;;2.42;;
52318;SDS011;38258;51.148;14.068;2023-08-08T01:57:30;5.13;;;2.40;;
52318;SDS011;38258;51.148;14.068;2023-08-08T01:59:59;5.38;;;2.35;;
52318;SDS011;38258;51.148;14.068;2023-08-08T02:02:27;4.07;;;2.45;;
52318;SDS011;38258;51.148;14.068;2023-08-08T02:04:54;3.65;;;2.63;;
52318;SDS011;38258;51.148;14.068;2023-08-08T02:07:21;5.97;;;2.47;;
52318;SDS011;38258;51.148;14.068;2023-08-08T02:09:48;6.18;;;2.60;;
52318;SDS011;38258;51.148;14.068;2023-08-08T02:12:17;3.92;;;2.30;;
52318;SDS011;38258;51.148;14.068;2023-08-08T02:14:44;5.95;;;2.50;;
52318;SDS011;38258;51.148;14.068;2023-08-08T02:17:12;6.47;;;2.70;;
52318;SDS011;38258;51.148;14.068;2023-08-08T02:19:38;4.38;;;2.30;;
52318;SDS011;38258;51.148;14.068;2023-08-08T02:22:05;5.53;;;2.65;;
52318;SDS011;38258;51.148;14.068;2023-08-08T02:24:32;4.80;;;2.30;;
52318;SDS011;38258;51.148;14.068;2023-08-08T02:27:00;5.75;;;2.58;;
52318;SDS011;38258;51.148;14.068;2023-08-08T02:29:28;4.00;;;2.55;;
52318;SDS011;38258;51.148;14.068;2023-08-08T02:31:58;5.63;;;2.10;;
52318;SDS011;38258;51.148;14.068;2023-08-08T02:34:26;4.22;;;2.47;;
52318;SDS011;38258;51.148;14.068;2023-08-08T02:36:55;5.82;;;2.63;;
52318;SDS011;38258;51.148;14.068;2023-08-08T02:39:22;7.22;;;2.50;;
52318;SDS011;38258;51.148;14.068;2023-08-08T02:41:48;5.10;;;2.30;;
52318;SDS011;38258;51.148;14.068;2023-08-08T02:44:15;4.50;;;2.22;;
52318;SDS011;38258;51.148;14.068;2023-08-08T02:46:45;3.92;;;2.08;;
52318;SDS011;38258;51.148;14.068;2023-08-08T02:49:11;3.30;;;2.00;;
52318;SDS011;38258;51.148;14.068;2023-08-08T02:51:40;5.43;;;2.53;;
52318;SDS011;38258;51.148;14.068;2023-08-08T02:54:07;3.90;;;2.33;;
52318;SDS011;38258;51.148;14.068;2023-08-08T02:56:35;5.13;;;2.58;;
52318;SDS011;38258;51.148;14.068;2023-08-08T02:59:02;4.03;;;2.35;;
52318;SDS011;38258;51.148;14.068;2023-08-08T03:01:30;4.05;;;2.38;;
52318;SDS011;38258;51.148;14.068;2023-08-08T03:03:57;6.20;;;2.33;;
52318;SDS011;38258;51.148;14.068;2023-08-08T03:06:25;4.22;;;2.30;;
52318;SDS011;38258;51.148;14.068;2023-08-08T03:08:53;4.35;;;2.53;;
52318;SDS011;38258;51.148;14.068;2023-08-08T03:11:21;7.28;;;2.50;;
52318;SDS011;38258;51.148;14.068;2023-08-08T03:13:52;4.68;;;2.30;;
52318;SDS011;38258;51.148;14.068;2023-08-08T03:16:19;5.45;;;2.50;;
52318;SDS011;38258;51.148;14.068;2023-08-08T03:18:46;4.32;;;2.50;;
52318;SDS011;38258;51.148;14.068;2023-08-08T03:21:13;4.72;;;2.50;;
52318;SDS011;38258;51.148;14.068;2023-08-08T03:23:40;4.03;;;2.38;;
52318;SDS011;38258;51.148;14.068;2023-08-08T03:26:08;7.65;;;2.38;;
52318;SDS011;38258;51.148;14.068;2023-08-08T03:28:35;5.32;;;2.45;;
52318;SDS011;38258;51.148;14.068;2023-08-08T03:31:02;4.57;;;2.50;;
52318;SDS011;38258;51.148;14.068;2023-08-08T03:33:31;5.05;;;2.35;;
52318;SDS011;38258;51.148;14.068;2023-08-08T03:35:59;5.28;;;2.63;;
52318;SDS011;38258;51.148;14.068;2023-08-08T03:38:27;7.03;;;4.00;;
52318;SDS011;38258;51.148;14.068;2023-08-08T03:40:54;7.15;;;3.38;;
52318;SDS011;38258;51.148;14.068;2023-08-08T03:43:23;6.68;;;3.47;;
52318;SDS011;38258;51.148;14.068;2023-08-08T03:45:53;6.72;;;3.13;;
52318;SDS011;38258;51.148;14.068;2023-08-08T03:48:20;6.82;;;3.30;;
52318;SDS011;38258;51.148;14.068;2023-08-08T03:50:46;6.07;;;2.85;;
52318;SDS011;38258;51.148;14.068;2023-08-08T03:53:13;6.07;;;2.40;;
52318;SDS011;38258;51.148;14.068;2023-08-08T03:55:40;5.60;;;2.78;;
52318;SDS011;38258;51.148;14.068;2023-08-08T03:58:07;4.30;;;2.60;;
52318;SDS011;38258;51.148;14.068;2023-08-08T04:00:35;5.50;;;2.65;;
52318;SDS011;38258;51.148;14.068;2023-08-08T04:03:01;5.40;;;2.67;;
52318;SDS011;38258;51.148;14.068;2023-08-08T04:05:28;4.38;;;2.50;;
52318;SDS011;38258;51.148;14.068;2023-08-08T04:07:55;4.20;;;2.17;;
52318;SDS011;38258;51.148;14.068;2023-08-08T04:10:22;5.43;;;2.45;;
52318;SDS011;38258;51.148;14.068;2023-08-08T04:12:48;5.32;;;2.30;;
52318;SDS011;38258;51.148;14.068;2023-08-08T04:15:15;6.80;;;2.63;;
52318;SDS011;38258;51.148;14.068;2023-08-08T04:17:43;5.30;;;2.38;;
52318;SDS011;38258;51.148;14.068;2023-08-08T04:20:10;5.03;;;2.50;;
52318;SDS011;38258;51.148;14.068;2023-08-08T04:22:37;6.40;;;2.78;;
52318;SDS011;38258;51.148;14.068;2023-08-08T04:25:04;4.00;;;2.45;;
52318;SDS011;38258;51.148;14.068;2023-08-08T04:27:33;4.63;;;2.50;;
52318;SDS011;38258;51.148;14.068;2023-08-08T04:29:59;6.53;;;2.33;;
52318;SDS011;38258;51.148;14.068;2023-08-08T04:32:26;4.82;;;2.35;;
52318;SDS011;38258;51.148;14.068;2023-08-08T04:34:54;3.63;;;2.22;;
52318;SDS011;38258;51.148;14.068;2023-08-08T04:37:21;5.43;;;2.40;;
52318;SDS011;38258;51.148;14.068;2023-08-08T04:39:48;4.93;;;2.40;;
52318;SDS011;38258;51.148;14.068;2023-08-08T04:42:14;4.95;;;2.30;;
52318;SDS011;38258;51.148;14.068;2023-08-08T04:44:41;4.07;;;2.63;;
52318;SDS011;38258;51.148;14.068;2023-08-08T04:47:08;4.00;;;2.30;;
52318;SDS011;38258;51.148;14.068;2023-08-08T04:49:35;3.40;;;2.20;;
52318;SDS011;38258;51.148;14.068;2023-08-08T04:52:03;3.90;;;2.63;;
52318;SDS011;38258;51.148;14.068;2023-08-08T04:54:30;5.40;;;2.35;;
52318;SDS011;38258;51.148;14.068;2023-08-08T04:56:57;5.50;;;2.20;;
52318;SDS011;38258;51.148;14.068;2023-08-08T04:59:24;5.25;;;2.42;;
52318;SDS011;38258;51.148;14.068;2023-08-08T05:01:51;4.88;;;2.40;;
52318;SDS011;38258;51.148;14.068;2023-08-08T05:04:17;4.13;;;2.20;;
52318;SDS011;38258;51.148;14.068;2023-08-08T05:06:44;5.95;;;2.60;;
52318;SDS011;38258;51.148;14.068;2023-08-08T05:09:13;8.57;;;2.92;;
52318;SDS011;38258;51.148;14.068;2023-08-08T05:11:41;3.38;;;1.95;;
52318;SDS011;38258;51.148;14.068;2023-08-08T05:14:08;4.25;;;2.63;;
52318;SDS011;38258;51.148;14.068;2023-08-08T05:16:34;4.32;;;2.20;;
52318;SDS011;38258;51.148;14.068;2023-08-08T05:19:01;5.13;;;2.33;;
52318;SDS011;38258;51.148;14.068;2023-08-08T05:21:28;3.55;;;2.08;;
52318;SDS011;38258;51.148;14.068;2023-08-08T05:23:55;5.40;;;2.53;;
52318;SDS011;38258;51.148;14.068;2023-08-08T05:26:23;4.80;;;2.50;;
52318;SDS011;38258;51.148;14.068;2023-08-08T05:28:49;4.10;;;2.35;;
52318;SDS011;38258;51.148;14.068;2023-08-08T05:31:16;4.18;;;2.38;;
52318;SDS011;38258;51.148;14.068;2023-08-08T05:33:43;3.78;;;2.10;;
52318;SDS011;38258;51.148;14.068;2023-08-08T05:36:10;3.85;;;2.50;;
52318;SDS011;38258;51.148;14.068;2023-08-08T05:38:37;6.50;;;2.60;;
52318;SDS011;38258;51.148;14.068;2023-08-08T05:41:03;5.43;;;2.20;;
52318;SDS011;38258;51.148;14.068;2023-08-08T05:43:31;3.50;;;2.40;;
52318;SDS011;38258;51.148;14.068;2023-08-08T05:45:58;3.90;;;2.28;;
52318;SDS011;38258;51.148;14.068;2023-08-08T05:48:25;6.63;;;2.30;;
52318;SDS011;38258;51.148;14.068;2023-08-08T05:50:52;3.92;;;2.45;;
52318;SDS011;38258;51.148;14.068;2023-08-08T05:53:18;4.10;;;2.30;;
52318;SDS011;38258;51.148;14.068;2023-08-08T05:55:45;3.40;;;1.98;;
52318;SDS011;38258;51.148;14.068;2023-08-08T05:58:12;3.30;;;2.13;;
52318;SDS011;38258;51.148;14.068;2023-08-08T06:00:40;4.50;;;2.20;;
52318;SDS011;38258;51.148;14.068;2023-08-08T06:03:07;3.78;;;2.10;;
52318;SDS011;38258;51.148;14.068;2023-08-08T06:05:34;3.90;;;1.80;;
52318;SDS011;38258;51.148;14.068;2023-08-08T06:08:01;4.32;;;2.35;;
52318;SDS011;38258;51.148;14.068;2023-08-08T06:10:29;5.38;;;2.08;;
52318;SDS011;38258;51.148;14.068;2023-08-08T06:12:56;6.18;;;2.50;;
52318;SDS011;38258;51.148;14.068;2023-08-08T06:15:22;4.45;;;3.30;;
52318;SDS011;38258;51.148;14.068;2023-08-08T06:17:51;4.70;;;2.95;;
52318;SDS011;38258;51.148;14.068;2023-08-08T06:20:17;3.90;;;2.40;;
52318;SDS011;38258;51.148;14.068;2023-08-08T06:22:44;3.28;;;2.00;;
52318;SDS011;38258;51.148;14.068;2023-08-08T06:25:11;3.45;;;2.10;;
52318;SDS011;38258;51.148;14.068;2023-08-08T06:27:38;4.75;;;2.20;;
52318;SDS011;38258;51.148;14.068;2023-08-08T06:30:05;4.45;;;2.25;;
52318;SDS011;38258;51.148;14.068;2023-08-08T06:32:33;4.07;;;2.10;;
52318;SDS011;38258;51.148;14.068;2023-08-08T06:35:02;4.47;;;1.95;;
52318;SDS011;38258;51.148;14.068;2023-08-08T06:37:29;3.30;;;1.90;;
52318;SDS011;38258;51.148;14.068;2023-08-08T06:39:55;2.90;;;1.90;;
52318;SDS011;38258;51.148;14.068;2023-08-08T06:42:22;3.20;;;2.10;;
52318;SDS011;38258;51.148;14.068;2023-08-08T06:44:55;3.25;;;2.00;;
52318;SDS011;38258;51.148;14.068;2023-08-08T06:47:21;3.58;;;2.00;;
52318;SDS011;38258;51.148;14.068;2023-08-08T06:49:48;7.80;;;2.25;;
52318;SDS011;38258;51.148;14.068;2023-08-08T06:52:16;3.03;;;1.98;;
52318;SDS011;38258;51.148;14.068;2023-08-08T06:54:43;3.88;;;2.00;;
52318;SDS011;38258;51.148;14.068;2023-08-08T06:57:10;4.28;;;2.22;;
52318;SDS011;38258;51.148;14.068;2023-08-08T06:59:36;2.88;;;1.77;;
52318;SDS011;38258;51.148;14.068;2023-08-08T07:02:03;4.43;;;1.88;;
52318;SDS011;38258;51.148;14.068;2023-08-08T07:04:30;3.72;;;2.03;;
52318;SDS011;38258;51.148;14.068;2023-08-08T07:06:57;3.80;;;2.03;;
52318;SDS011;38258;51.148;14.068;2023-08-08T07:09:25;3.00;;;2.00;;
52318;SDS011;38258;51.148;14.068;2023-08-08T07:11:52;5.18;;;2.38;;
52318;SDS011;38258;51.148;14.068;2023-08-08T07:14:20;3.63;;;1.85;;
52318;SDS011;38258;51.148;14.068;2023-08-08T07:16:47;2.60;;;1.70;;
52318;SDS011;38258;51.148;14.068;2023-08-08T07:19:14;2.90;;;2.10;;
52318;SDS011;38258;51.148;14.068;2023-08-08T07:21:41;3.03;;;2.10;;
52318;SDS011;38258;51.148;14.068;2023-08-08T07:24:08;4.55;;;2.00;;
52318;SDS011;38258;51.148;14.068;2023-08-08T07:26:37;3.53;;;1.90;;
52318;SDS011;38258;51.148;14.068;2023-08-08T07:29:04;3.38;;;2.15;;
52318;SDS011;38258;51.148;14.068;2023-08-08T07:31:31;4.57;;;2.03;;
52318;SDS011;38258;51.148;14.068;2023-08-08T07:33:58;2.95;;;1.90;;
52318;SDS011;38258;51.148;14.068;2023-08-08T07:36:25;2.72;;;2.00;;
52318;SDS011;38258;51.148;14.068;2023-08-08T07:38:52;3.97;;;1.70;;
52318;SDS011;38258;51.148;14.068;2023-08-08T07:41:21;3.42;;;1.90;;
52318;SDS011;38258;51.148;14.068;2023-08-08T07:43:50;4.75;;;1.80;;
52318;SDS011;38258;51.148;14.068;2023-08-08T07:46:17;3.33;;;2.30;;
52318;SDS011;38258;51.148;14.068;2023-08-08T07:48:44;3.97;;;1.90;;
52318;SDS011;38258;51.148;14.068;2023-08-08T07:51:11;5.03;;;2.00;;
52318;SDS011;38258;51.148;14.068;2023-08-08T07:53:38;4.05;;;2.10;;
52318;SDS011;38258;51.148;14.068;2023-08-08T07:56:05;3.25;;;1.83;;
52318;SDS011;38258;51.148;14.068;2023-08-08T07:58:31;3.15;;;1.88;;
52318;SDS011;38258;51.148;14.068;2023-08-08T08:01:00;4.05;;;2.15;;
52318;SDS011;38258;51.148;14.068;2023-08-08T08:03:27;3.10;;;1.98;;
52318;SDS011;38258;51.148;14.068;2023-08-08T08:05:53;2.83;;;1.73;;
52318;SDS011;38258;51.148;14.068;2023-08-08T08:08:20;3.65;;;2.10;;
52318;SDS011;38258;51.148;14.068;2023-08-08T08:10:47;3.83;;;1.85;;
52318;SDS011;38258;51.148;14.068;2023-08-08T08:13:16;4.68;;;1.90;;
52318;SDS011;38258;51.148;14.068;2023-08-08T08:15:42;2.03;;;1.50;;
52318;SDS011;38258;51.148;14.068;2023-08-08T08:18:11;3.15;;;1.80;;
52318;SDS011;38258;51.148;14.068;2023-08-08T08:20:39;2.88;;;1.90;;
52318;SDS011;38258;51.148;14.068;2023-08-08T08:23:05;3.78;;;1.95;;
52318;SDS011;38258;51.148;14.068;2023-08-08T08:25:32;3.70;;;2.17;;
52318;SDS011;38258;51.148;14.068;2023-08-08T08:27:59;3.10;;;1.98;;
52318;SDS011;38258;51.148;14.068;2023-08-08T08:30:26;2.70;;;1.80;;
52318;SDS011;38258;51.148;14.068;2023-08-08T08:32:52;2.30;;;1.80;;
52318;SDS011;38258;51.148;14.068;2023-08-08T08:35:21;3.75;;;2.05;;
52318;SDS011;38258;51.148;14.068;2023-08-08T08:37:47;2.35;;;1.80;;
52318;SDS011;38258;51.148;14.068;2023-08-08T08:40:14;3.28;;;1.90;;
52318;SDS011;38258;51.148;14.068;2023-08-08T08:42:41;5.18;;;1.90;;
52318;SDS011;38258;51.148;14.068;2023-08-08T08:45:09;3.55;;;1.98;;
52318;SDS011;38258;51.148;14.068;2023-08-08T08:47:37;2.58;;;1.85;;
52318;SDS011;38258;51.148;14.068;2023-08-08T08:50:08;3.53;;;1.90;;
52318;SDS011;38258;51.148;14.068;2023-08-08T08:52:36;3.03;;;1.90;;
52318;SDS011;38258;51.148;14.068;2023-08-08T08:55:04;3.55;;;2.00;;
52318;SDS011;38258;51.148;14.068;2023-08-08T08:57:32;2.28;;;1.70;;
52318;SDS011;38258;51.148;14.068;2023-08-08T08:59:59;3.03;;;1.85;;
52318;SDS011;38258;51.148;14.068;2023-08-08T09:02:26;4.30;;;1.80;;
52318;SDS011;38258;51.148;14.068;2023-08-08T09:04:53;3.63;;;1.90;;
52318;SDS011;38258;51.148;14.068;2023-08-08T09:07:20;4.38;;;1.90;;
52318;SDS011;38258;51.148;14.068;2023-08-08T09:09:53;4.70;;;1.77;;
52318;SDS011;38258;51.148;14.068;2023-08-08T09:12:19;2.78;;;1.83;;
52318;SDS011;38258;51.148;14.068;2023-08-08T09:14:46;3.10;;;1.80;;
52318;SDS011;38258;51.148;14.068;2023-08-08T09:17:14;2.78;;;1.80;;
52318;SDS011;38258;51.148;14.068;2023-08-08T09:19:42;3.63;;;1.90;;
52318;SDS011;38258;51.148;14.068;2023-08-08T09:22:09;2.65;;;1.80;;
52318;SDS011;38258;51.148;14.068;2023-08-08T09:24:37;3.08;;;1.83;;
52318;SDS011;38258;51.148;14.068;2023-08-08T09:27:06;4.03;;;1.88;;
52318;SDS011;38258;51.148;14.068;2023-08-08T09:29:33;3.22;;;1.60;;
52318;SDS011;38258;51.148;14.068;2023-08-08T09:32:02;2.80;;;1.90;;
52318;SDS011;38258;51.148;14.068;2023-08-08T09:34:29;2.80;;;1.95;;
52318;SDS011;38258;51.148;14.068;2023-08-08T09:36:56;2.83;;;1.92;;
52318;SDS011;38258;51.148;14.068;2023-08-08T09:39:22;3.67;;;1.95;;
52318;SDS011;38258;51.148;14.068;2023-08-08T09:41:49;3.72;;;2.00;;
52318;SDS011;38258;51.148;14.068;2023-08-08T09:44:17;3.30;;;2.20;;
52318;SDS011;38258;51.148;14.068;2023-08-08T09:46:44;3.63;;;2.50;;
52318;SDS011;38258;51.148;14.068;2023-08-08T09:49:11;3.55;;;1.92;;
52318;SDS011;38258;51.148;14.068;2023-08-08T09:51:38;3.95;;;2.08;;
52318;SDS011;38258;51.148;14.068;2023-08-08T09:54:06;4.55;;;2.13;;
52318;SDS011;38258;51.148;14.068;2023-08-08T09:56:33;4.20;;;2.10;;
52318;SDS011;38258;51.148;14.068;2023-08-08T09:59:00;3.50;;;2.03;;
52318;SDS011;38258;51.148;14.068;2023-08-08T10:01:29;2.95;;;2.08;;
52318;SDS011;38258;51.148;14.068;2023-08-08T10:03:57;3.33;;;2.25;;
52318;SDS011;38258;51.148;14.068;2023-08-08T10:06:24;2.88;;;1.90;;
52318;SDS011;38258;51.148;14.068;2023-08-08T10:08:52;3.50;;;2.10;;
52318;SDS011;38258;51.148;14.068;2023-08-08T10:11:20;4.10;;;2.10;;
52318;SDS011;38258;51.148;14.068;2023-08-08T10:13:49;4.30;;;2.30;;
52318;SDS011;38258;51.148;14.068;2023-08-08T10:16:16;3.45;;;1.85;;
52318;SDS011;38258;51.148;14.068;2023-08-08T10:18:45;3.60;;;2.10;;
52318;SDS011;38258;51.148;14.068;2023-08-08T10:21:12;3.95;;;2.00;;
52318;SDS011;38258;51.148;14.068;2023-08-08T10:23:39;4.43;;;2.20;;
52318;SDS011;38258;51.148;14.068;2023-08-08T10:26:16;2.95;;;1.92;;
52318;SDS011;38258;51.148;14.068;2023-08-08T10:28:51;5.65;;;2.00;;
52318;SDS011;38258;51.148;14.068;2023-08-08T10:31:20;4.05;;;2.30;;
52318;SDS011;38258;51.148;14.068;2023-08-08T10:33:48;2.38;;;2.10;;
52318;SDS011;38258;51.148;14.068;2023-08-08T10:36:15;2.95;;;1.88;;
52318;SDS011;38258;51.148;14.068;2023-08-08T10:38:43;4.85;;;2.30;;
52318;SDS011;38258;51.148;14.068;2023-08-08T10:41:12;4.25;;;2.00;;
52318;SDS011;38258;51.148;14.068;2023-08-08T10:43:47;3.83;;;2.20;;
52318;SDS011;38258;51.148;14.068;2023-08-08T10:46:22;5.20;;;2.30;;
52318;SDS011;38258;51.148;14.068;2023-08-08T10:48:52;4.78;;;2.13;;
52318;SDS011;38258;51.148;14.068;2023-08-08T10:51:20;4.22;;;2.20;;
52318;SDS011;38258;51.148;14.068;2023-08-08T10:53:50;3.72;;;1.80;;
52318;SDS011;38258;51.148;14.068;2023-08-08T10:56:18;3.30;;;2.03;;
52318;SDS011;38258;51.148;14.068;2023-08-08T10:58:47;3.85;;;2.00;;
52318;SDS011;38258;51.148;14.068;2023-08-08T11:01:15;5.15;;;2.10;;
52318;SDS011;38258;51.148;14.068;2023-08-08T11:03:42;4.38;;;1.88;;
52318;SDS011;38258;51.148;14.068;2023-08-08T11:06:11;3.00;;;1.90;;
52318;SDS011;38258;51.148;14.068;2023-08-08T11:08:38;4.35;;;2.00;;
52318;SDS011;38258;51.148;14.068;2023-08-08T11:11:05;3.55;;;2.13;;
52318;SDS011;38258;51.148;14.068;2023-08-08T11:13:32;4.55;;;2.10;;
52318;SDS011;38258;51.148;14.068;2023-08-08T11:16:00;3.10;;;1.80;;
52318;SDS011;38258;51.148;14.068;2023-08-08T11:18:27;3.25;;;2.08;;
52318;SDS011;38258;51.148;14.068;2023-08-08T11:20:55;3.60;;;1.90;;
52318;SDS011;38258;51.148;14.068;2023-08-08T11:23:23;3.10;;;1.98;;
52318;SDS011;38258;51.148;14.068;2023-08-08T11:25:49;3.92;;;1.77;;
52318;SDS011;38258;51.148;14.068;2023-08-08T11:28:16;5.47;;;2.20;;
52318;SDS011;38258;51.148;14.068;2023-08-08T11:30:43;4.20;;;2.20;;
52318;SDS011;38258;51.148;14.068;2023-08-08T11:33:12;3.05;;;2.10;;
52318;SDS011;38258;51.148;14.068;2023-08-08T11:35:43;3.40;;;1.80;;
52318;SDS011;38258;51.148;14.068;2023-08-08T11:38:13;2.50;;;1.88;;
52318;SDS011;38258;51.148;14.068;2023-08-08T11:40:42;3.95;;;2.00;;
52318;SDS011;38258;51.148;14.068;2023-08-08T11:43:10;4.57;;;1.88;;
52318;SDS011;38258;51.148;14.068;2023-08-08T11:45:39;3.67;;;1.90;;
52318;SDS011;38258;51.148;14.068;2023-08-08T11:48:07;2.80;;;1.90;;
52318;SDS011;38258;51.148;14.068;2023-08-08T11:50:36;2.65;;;1.80;;
52318;SDS011;38258;51.148;14.068;2023-08-08T11:53:04;4.80;;;1.90;;
52318;SDS011;38258;51.148;14.068;2023-08-08T11:55:31;2.90;;;1.90;;
52318;SDS011;38258;51.148;14.068;2023-08-08T11:57:59;3.22;;;1.67;;
52318;SDS011;38258;51.148;14.068;2023-08-08T12:00:27;6.22;;;1.90;;
52318;SDS011;38258;51.148;14.068;2023-08-08T12:02:55;5.00;;;2.20;;
52318;SDS011;38258;51.148;14.068;2023-08-08T12:05:22;3.08;;;2.10;;
52318;SDS011;38258;51.148;14.068;2023-08-08T12:07:49;2.90;;;1.85;;
52318;SDS011;38258;51.148;14.068;2023-08-08T12:10:18;3.28;;;2.03;;
52318;SDS011;38258;51.148;14.068;2023-08-08T12:12:52;3.53;;;1.63;;
52318;SDS011;38258;51.148;14.068;2023-08-08T12:15:23;2.83;;;1.98;;
52318;SDS011;38258;51.148;14.068;2023-08-08T12:17:50;3.15;;;1.70;;
52318;SDS011;38258;51.148;14.068;2023-08-08T12:20:16;2.90;;;1.80;;
52318;SDS011;38258;51.148;14.068;2023-08-08T12:22:43;3.65;;;1.77;;
52318;SDS011;38258;51.148;14.068;2023-08-08T12:25:10;2.95;;;1.90;;
52318;SDS011;38258;51.148;14.068;2023-08-08T12:27:37;4.35;;;1.75;;
52318;SDS011;38258;51.148;14.068;2023-08-08T12:30:05;2.83;;;1.83;;
52318;SDS011;38258;51.148;14.068;2023-08-08T12:32:34;2.78;;;1.80;;
52318;SDS011;38258;51.148;14.068;2023-08-08T12:35:01;2.92;;;2.17;;
52318;SDS011;38258;51.148;14.068;2023-08-08T12:37:28;2.40;;;1.80;;
52318;SDS011;38258;51.148;14.068;2023-08-08T12:39:54;3.35;;;1.70;;
52318;SDS011;38258;51.148;14.068;2023-08-08T12:42:21;2.38;;;1.85;;
52318;SDS011;38258;51.148;14.068;2023-08-08T12:44:48;3.05;;;1.80;;
52318;SDS011;38258;51.148;14.068;2023-08-08T12:47:16;3.85;;;1.90;;
52318;SDS011;38258;51.148;14.068;2023-08-08T12:49:44;5.15;;;2.00;;
52318;SDS011;38258;51.148;14.068;2023-08-08T12:52:11;3.10;;;1.98;;
52318;SDS011;38258;51.148;14.068;2023-08-08T12:54:38;4.47;;;2.00;;
52318;SDS011;38258;51.148;14.068;2023-08-08T12:57:05;2.70;;;2.05;;
52318;SDS011;38258;51.148;14.068;2023-08-08T12:59:31;4.60;;;2.47;;
52318;SDS011;38258;51.148;14.068;2023-08-08T13:01:58;3.67;;;2.50;;
52318;SDS011;38258;51.148;14.068;2023-08-08T13:04:25;3.95;;;2.63;;
52318;SDS011;38258;51.148;14.068;2023-08-08T13:06:53;5.45;;;2.53;;
52318;SDS011;38258;51.148;14.068;2023-08-08T13:09:20;3.38;;;2.17;;
52318;SDS011;38258;51.148;14.068;2023-08-08T13:11:47;3.67;;;2.30;;
52318;SDS011;38258;51.148;14.068;2023-08-08T13:14:14;3.80;;;2.30;;
52318;SDS011;38258;51.148;14.068;2023-08-08T13:16:41;3.28;;;2.20;;
52318;SDS011;38258;51.148;14.068;2023-08-08T13:19:08;4.03;;;2.10;;
52318;SDS011;38258;51.148;14.068;2023-08-08T13:21:35;3.83;;;2.03;;
52318;SDS011;38258;51.148;14.068;2023-08-08T13:24:03;3.47;;;1.95;;
52318;SDS011;38258;51.148;14.068;2023-08-08T13:26:30;3.88;;;2.20;;
52318;SDS011;38258;51.148;14.068;2023-08-08T13:28:57;3.08;;;1.95;;
52318;SDS011;38258;51.148;14.068;2023-08-08T13:31:24;3.42;;;2.10;;
52318;SDS011;38258;51.148;14.068;2023-08-08T13:33:51;3.67;;;2.30;;
52318;SDS011;38258;51.148;14.068;2023-08-08T13:36:17;3.47;;;2.10;;
52318;SDS011;38258;51.148;14.068;2023-08-08T13:38:44;4.78;;;2.10;;
52318;SDS011;38258;51.148;14.068;2023-08-08T13:41:12;3.53;;;2.15;;
52318;SDS011;38258;51.148;14.068;2023-08-08T13:43:39;2.63;;;2.00;;
52318;SDS011;38258;51.148;14.068;2023-08-08T13:46:06;4.32;;;2.00;;
52318;SDS011;38258;51.148;14.068;2023-08-08T13:48:33;3.10;;;2.20;;
52318;SDS011;38258;51.148;14.068;2023-08-08T13:51:00;2.40;;;1.80;;
52318;SDS011;38258;51.148;14.068;2023-08-08T13:53:27;3.75;;;2.00;;
52318;SDS011;38258;51.148;14.068;2023-08-08T13:55:54;2.90;;;1.95;;
52318;SDS011;38258;51.148;14.068;2023-08-08T13:58:22;3.22;;;2.10;;
52318;SDS011;38258;51.148;14.068;2023-08-08T14:00:49;2.95;;;1.90;;
52318;SDS011;38258;51.148;14.068;2023-08-08T14:03:16;4.60;;;2.00;;
52318;SDS011;38258;51.148;14.068;2023-08-08T14:05:43;3.95;;;2.35;;
52318;SDS011;38258;51.148;14.068;2023-08-08T14:08:10;6.60;;;2.80;;
52318;SDS011;38258;51.148;14.068;2023-08-08T14:10:37;5.70;;;2.70;;
52318;SDS011;38258;51.148;14.068;2023-08-08T14:13:04;4.30;;;2.08;;
52318;SDS011;38258;51.148;14.068;2023-08-08T14:15:32;3.85;;;2.00;;
52318;SDS011;38258;51.148;14.068;2023-08-08T14:18:05;2.75;;;1.85;;
52318;SDS011;38258;51.148;14.068;2023-08-08T14:20:32;3.50;;;2.22;;
52318;SDS011;38258;51.148;14.068;2023-08-08T14:23:00;4.18;;;2.20;;
52318;SDS011;38258;51.148;14.068;2023-08-08T14:25:26;4.13;;;1.80;;
52318;SDS011;38258;51.148;14.068;2023-08-08T14:27:54;2.58;;;1.75;;
52318;SDS011;38258;51.148;14.068;2023-08-08T14:30:22;3.58;;;1.92;;
52318;SDS011;38258;51.148;14.068;2023-08-08T14:32:52;4.03;;;1.73;;
52318;SDS011;38258;51.148;14.068;2023-08-08T14:35:19;2.72;;;1.98;;